sensor_id;sensor_type;location;lat;lon;timestamp;temperature;humidity
73572;DHT22;61854;48.510;-2.770;2022-10-13T00:00:24;12.70;93.40
73572;DHT22;61854;48.510;-2.770;2022-10-13T00:02:50;12.70;93.50
73572;DHT22;61854;48.510;-2.770;2022-10-13T00:05:16;12.70;93.80
73572;DHT22;61854;48.510;-2.770;2022-10-13T00:07:42;12.70;93.90
73572;DHT22;61854;48.510;-2.770;2022-10-13T00:10:08;12.70;94.00
73572;DHT22;61854;48.510;-2.770;2022-10-13T00:12:35;12.70;94.00
73572;DHT22;61854;48.510;-2.770;2022-10-13T00:15:00;12.70;94.00
73572;DHT22;61854;48.510;-2.770;2022-10-13T00:17:26;12.70;94.10
73572;DHT22;61854;48.510;-2.770;2022-10-13T00:19:52;12.80;94.00
73572;DHT22;61854;48.510;-2.770;2022-10-13T00:22:17;12.80;94.00
73572;DHT22;61854;48.510;-2.770;2022-10-13T00:24:43;12.80;94.10
73572;DHT22;61854;48.510;-2.770;2022-10-13T00:27:09;12.80;94.10
73572;DHT22;61854;48.510;-2.770;2022-10-13T00:29:34;12.80;94.10
73572;DHT22;61854;48.510;-2.770;2022-10-13T00:32:00;12.80;94.20
73572;DHT22;61854;48.510;-2.770;2022-10-13T00:34:25;12.80;94.30
73572;DHT22;61854;48.510;-2.770;2022-10-13T00:36:51;12.80;94.40
73572;DHT22;61854;48.510;-2.770;2022-10-13T00:39:16;12.80;94.50
73572;DHT22;61854;48.510;-2.770;2022-10-13T00:41:42;12.80;94.40
73572;DHT22;61854;48.510;-2.770;2022-10-13T00:47:11;12.80;94.70
73572;DHT22;61854;48.510;-2.770;2022-10-13T00:49:37;12.90;94.60
73572;DHT22;61854;48.510;-2.770;2022-10-13T00:52:03;12.90;94.60
73572;DHT22;61854;48.510;-2.770;2022-10-13T00:54:29;12.90;94.60
73572;DHT22;61854;48.510;-2.770;2022-10-13T00:56:54;12.90;94.50
73572;DHT22;61854;48.510;-2.770;2022-10-13T00:59:24;12.90;94.60
73572;DHT22;61854;48.510;-2.770;2022-10-13T01:01:56;12.90;94.70
73572;DHT22;61854;48.510;-2.770;2022-10-13T01:04:27;12.90;94.70
73572;DHT22;61854;48.510;-2.770;2022-10-13T01:06:55;12.90;94.80
73572;DHT22;61854;48.510;-2.770;2022-10-13T01:09:21;12.90;94.80
73572;DHT22;61854;48.510;-2.770;2022-10-13T01:11:50;12.90;94.80
73572;DHT22;61854;48.510;-2.770;2022-10-13T01:14:48;12.90;94.90
73572;DHT22;61854;48.510;-2.770;2022-10-13T01:30:58;13.00;94.70
73572;DHT22;61854;48.510;-2.770;2022-10-13T01:33:52;13.00;94.80
73572;DHT22;61854;48.510;-2.770;2022-10-13T01:36:38;13.00;94.80
73572;DHT22;61854;48.510;-2.770;2022-10-13T01:41:41;13.10;94.70
73572;DHT22;61854;48.510;-2.770;2022-10-13T01:44:28;13.10;94.70
73572;DHT22;61854;48.510;-2.770;2022-10-13T01:46:56;13.10;94.70
73572;DHT22;61854;48.510;-2.770;2022-10-13T01:49:29;13.10;94.80
73572;DHT22;61854;48.510;-2.770;2022-10-13T01:52:05;13.10;94.90
73572;DHT22;61854;48.510;-2.770;2022-10-13T01:54:32;13.10;94.90
73572;DHT22;61854;48.510;-2.770;2022-10-13T01:56:58;13.10;94.90
73572;DHT22;61854;48.510;-2.770;2022-10-13T01:59:24;13.10;94.80
73572;DHT22;61854;48.510;-2.770;2022-10-13T02:07:28;13.10;94.90
73572;DHT22;61854;48.510;-2.770;2022-10-13T02:10:11;13.10;94.90
73572;DHT22;61854;48.510;-2.770;2022-10-13T02:12:45;13.10;94.90
73572;DHT22;61854;48.510;-2.770;2022-10-13T02:15:16;13.10;95.00
73572;DHT22;61854;48.510;-2.770;2022-10-13T02:17:42;13.10;95.10
73572;DHT22;61854;48.510;-2.770;2022-10-13T02:20:09;13.10;95.30
73572;DHT22;61854;48.510;-2.770;2022-10-13T02:22:42;13.10;95.20
73572;DHT22;61854;48.510;-2.770;2022-10-13T02:25:09;13.20;95.30
73572;DHT22;61854;48.510;-2.770;2022-10-13T02:27:35;13.20;95.30
73572;DHT22;61854;48.510;-2.770;2022-10-13T02:30:02;13.20;95.20
73572;DHT22;61854;48.510;-2.770;2022-10-13T02:32:28;13.20;95.30
73572;DHT22;61854;48.510;-2.770;2022-10-13T02:34:53;13.20;95.40
73572;DHT22;61854;48.510;-2.770;2022-10-13T02:37:19;13.20;95.30
73572;DHT22;61854;48.510;-2.770;2022-10-13T02:39:44;13.20;95.30
73572;DHT22;61854;48.510;-2.770;2022-10-13T02:42:10;13.30;95.30
73572;DHT22;61854;48.510;-2.770;2022-10-13T02:44:36;13.30;95.40
73572;DHT22;61854;48.510;-2.770;2022-10-13T02:47:01;13.30;95.30
73572;DHT22;61854;48.510;-2.770;2022-10-13T02:49:27;13.30;95.30
73572;DHT22;61854;48.510;-2.770;2022-10-13T02:51:53;13.30;95.30
73572;DHT22;61854;48.510;-2.770;2022-10-13T02:54:19;13.40;95.20
73572;DHT22;61854;48.510;-2.770;2022-10-13T02:56:44;13.30;95.10
73572;DHT22;61854;48.510;-2.770;2022-10-13T02:59:10;13.30;95.20
73572;DHT22;61854;48.510;-2.770;2022-10-13T03:01:36;13.30;95.30
73572;DHT22;61854;48.510;-2.770;2022-10-13T03:04:06;13.40;95.30
73572;DHT22;61854;48.510;-2.770;2022-10-13T03:06:32;13.40;95.30
73572;DHT22;61854;48.510;-2.770;2022-10-13T03:08:58;13.40;95.40
73572;DHT22;61854;48.510;-2.770;2022-10-13T03:11:23;13.40;95.50
73572;DHT22;61854;48.510;-2.770;2022-10-13T03:13:49;13.40;95.40
73572;DHT22;61854;48.510;-2.770;2022-10-13T03:16:15;13.40;95.30
73572;DHT22;61854;48.510;-2.770;2022-10-13T03:18:40;13.50;95.40
73572;DHT22;61854;48.510;-2.770;2022-10-13T03:21:06;13.40;95.40
73572;DHT22;61854;48.510;-2.770;2022-10-13T03:23:32;13.50;95.50
73572;DHT22;61854;48.510;-2.770;2022-10-13T03:25:58;13.50;95.60
73572;DHT22;61854;48.510;-2.770;2022-10-13T03:28:24;13.50;95.50
73572;DHT22;61854;48.510;-2.770;2022-10-13T03:30:49;13.50;95.50
73572;DHT22;61854;48.510;-2.770;2022-10-13T03:33:15;13.60;95.50
73572;DHT22;61854;48.510;-2.770;2022-10-13T03:35:41;13.60;95.50
73572;DHT22;61854;48.510;-2.770;2022-10-13T03:38:07;13.60;95.50
73572;DHT22;61854;48.510;-2.770;2022-10-13T03:40:35;13.60;95.40
73572;DHT22;61854;48.510;-2.770;2022-10-13T03:43:00;13.60;95.50
73572;DHT22;61854;48.510;-2.770;2022-10-13T03:45:26;13.60;95.50
73572;DHT22;61854;48.510;-2.770;2022-10-13T03:47:52;13.70;95.50
73572;DHT22;61854;48.510;-2.770;2022-10-13T03:50:17;13.70;95.60
73572;DHT22;61854;48.510;-2.770;2022-10-13T03:52:43;13.60;95.60
73572;DHT22;61854;48.510;-2.770;2022-10-13T03:55:08;13.60;95.60
73572;DHT22;61854;48.510;-2.770;2022-10-13T03:57:34;13.70;95.60
73572;DHT22;61854;48.510;-2.770;2022-10-13T04:00:00;13.70;95.60
73572;DHT22;61854;48.510;-2.770;2022-10-13T04:02:26;13.70;96.10
73572;DHT22;61854;48.510;-2.770;2022-10-13T04:04:52;13.70;95.50
73572;DHT22;61854;48.510;-2.770;2022-10-13T04:07:17;13.70;95.60
73572;DHT22;61854;48.510;-2.770;2022-10-13T04:09:43;13.70;95.60
73572;DHT22;61854;48.510;-2.770;2022-10-13T04:12:08;13.80;95.60
73572;DHT22;61854;48.510;-2.770;2022-10-13T04:14:34;13.80;95.60
73572;DHT22;61854;48.510;-2.770;2022-10-13T04:16:59;13.80;95.60
73572;DHT22;61854;48.510;-2.770;2022-10-13T04:19:25;13.80;95.70
73572;DHT22;61854;48.510;-2.770;2022-10-13T04:21:51;13.80;95.60
73572;DHT22;61854;48.510;-2.770;2022-10-13T04:24:16;13.90;95.70
73572;DHT22;61854;48.510;-2.770;2022-10-13T04:26:43;13.90;95.60
73572;DHT22;61854;48.510;-2.770;2022-10-13T04:29:10;13.90;95.70
73572;DHT22;61854;48.510;-2.770;2022-10-13T04:31:37;13.90;95.70
73572;DHT22;61854;48.510;-2.770;2022-10-13T04:34:03;13.90;95.70
73572;DHT22;61854;48.510;-2.770;2022-10-13T04:36:29;14.00;95.70
73572;DHT22;61854;48.510;-2.770;2022-10-13T04:38:55;14.00;95.80
73572;DHT22;61854;48.510;-2.770;2022-10-13T04:41:21;14.00;95.90
73572;DHT22;61854;48.510;-2.770;2022-10-13T04:43:56;14.00;95.90
73572;DHT22;61854;48.510;-2.770;2022-10-13T04:46:25;14.00;96.00
73572;DHT22;61854;48.510;-2.770;2022-10-13T04:48:51;14.00;96.00
73572;DHT22;61854;48.510;-2.770;2022-10-13T04:51:19;14.00;96.10
73572;DHT22;61854;48.510;-2.770;2022-10-13T04:53:46;14.00;96.20
73572;DHT22;61854;48.510;-2.770;2022-10-13T04:56:14;14.00;96.30
73572;DHT22;61854;48.510;-2.770;2022-10-13T04:58:41;14.00;96.40
73572;DHT22;61854;48.510;-2.770;2022-10-13T05:01:10;14.00;96.50
73572;DHT22;61854;48.510;-2.770;2022-10-13T05:03:36;14.00;96.60
73572;DHT22;61854;48.510;-2.770;2022-10-13T05:06:02;14.00;96.70
73572;DHT22;61854;48.510;-2.770;2022-10-13T05:08:28;14.00;96.70
73572;DHT22;61854;48.510;-2.770;2022-10-13T05:10:54;14.10;96.70
73572;DHT22;61854;48.510;-2.770;2022-10-13T05:13:20;14.10;96.70
73572;DHT22;61854;48.510;-2.770;2022-10-13T05:15:46;14.10;96.70
73572;DHT22;61854;48.510;-2.770;2022-10-13T05:18:12;14.20;96.60
73572;DHT22;61854;48.510;-2.770;2022-10-13T05:20:40;14.20;96.30
73572;DHT22;61854;48.510;-2.770;2022-10-13T05:23:06;14.30;96.20
73572;DHT22;61854;48.510;-2.770;2022-10-13T05:25:33;14.30;95.90
73572;DHT22;61854;48.510;-2.770;2022-10-13T05:27:59;14.40;95.60
73572;DHT22;61854;48.510;-2.770;2022-10-13T05:30:25;14.40;95.50
73572;DHT22;61854;48.510;-2.770;2022-10-13T05:32:50;14.40;95.30
73572;DHT22;61854;48.510;-2.770;2022-10-13T05:35:16;14.40;95.20
73572;DHT22;61854;48.510;-2.770;2022-10-13T05:37:42;14.40;95.10
73572;DHT22;61854;48.510;-2.770;2022-10-13T05:40:07;14.50;95.00
73572;DHT22;61854;48.510;-2.770;2022-10-13T05:42:34;14.50;94.90
73572;DHT22;61854;48.510;-2.770;2022-10-13T05:45:00;14.40;94.90
73572;DHT22;61854;48.510;-2.770;2022-10-13T05:47:26;14.50;94.80
73572;DHT22;61854;48.510;-2.770;2022-10-13T05:49:53;14.40;94.90
73572;DHT22;61854;48.510;-2.770;2022-10-13T05:52:20;14.40;95.00
73572;DHT22;61854;48.510;-2.770;2022-10-13T05:54:50;14.40;95.20
73572;DHT22;61854;48.510;-2.770;2022-10-13T05:57:27;14.40;95.30
73572;DHT22;61854;48.510;-2.770;2022-10-13T05:59:59;14.40;95.20
73572;DHT22;61854;48.510;-2.770;2022-10-13T06:02:30;14.40;95.20
73572;DHT22;61854;48.510;-2.770;2022-10-13T06:04:59;14.40;95.40
73572;DHT22;61854;48.510;-2.770;2022-10-13T06:07:26;14.40;95.50
73572;DHT22;61854;48.510;-2.770;2022-10-13T06:09:53;14.40;95.50
73572;DHT22;61854;48.510;-2.770;2022-10-13T06:12:19;14.40;95.60
73572;DHT22;61854;48.510;-2.770;2022-10-13T06:14:44;14.40;95.70
73572;DHT22;61854;48.510;-2.770;2022-10-13T06:17:10;14.40;95.70
73572;DHT22;61854;48.510;-2.770;2022-10-13T06:19:36;14.50;95.80
73572;DHT22;61854;48.510;-2.770;2022-10-13T06:22:02;14.50;95.80
73572;DHT22;61854;48.510;-2.770;2022-10-13T06:24:27;14.50;95.80
73572;DHT22;61854;48.510;-2.770;2022-10-13T06:26:53;14.50;95.90
73572;DHT22;61854;48.510;-2.770;2022-10-13T06:29:19;14.60;95.90
73572;DHT22;61854;48.510;-2.770;2022-10-13T06:31:44;14.50;96.00
73572;DHT22;61854;48.510;-2.770;2022-10-13T06:34:10;14.60;96.00
73572;DHT22;61854;48.510;-2.770;2022-10-13T06:36:36;14.60;96.00
73572;DHT22;61854;48.510;-2.770;2022-10-13T06:39:02;14.60;96.00
73572;DHT22;61854;48.510;-2.770;2022-10-13T06:41:28;14.60;96.00
73572;DHT22;61854;48.510;-2.770;2022-10-13T06:43:54;14.60;96.00
73572;DHT22;61854;48.510;-2.770;2022-10-13T06:46:19;14.60;96.10
73572;DHT22;61854;48.510;-2.770;2022-10-13T06:48:48;14.60;96.20
73572;DHT22;61854;48.510;-2.770;2022-10-13T06:51:14;14.70;96.20
73572;DHT22;61854;48.510;-2.770;2022-10-13T06:53:40;14.70;96.20
73572;DHT22;61854;48.510;-2.770;2022-10-13T06:56:06;14.70;96.60
73572;DHT22;61854;48.510;-2.770;2022-10-13T06:58:36;14.80;96.10
73572;DHT22;61854;48.510;-2.770;2022-10-13T07:01:03;14.80;95.90
73572;DHT22;61854;48.510;-2.770;2022-10-13T07:03:29;14.80;95.50
73572;DHT22;61854;48.510;-2.770;2022-10-13T07:06:03;14.80;95.20
73572;DHT22;61854;48.510;-2.770;2022-10-13T07:08:29;14.80;95.10
73572;DHT22;61854;48.510;-2.770;2022-10-13T07:10:55;14.80;95.00
73572;DHT22;61854;48.510;-2.770;2022-10-13T07:13:22;14.80;94.90
73572;DHT22;61854;48.510;-2.770;2022-10-13T07:15:47;14.90;94.50
73572;DHT22;61854;48.510;-2.770;2022-10-13T07:18:13;14.90;94.40
73572;DHT22;61854;48.510;-2.770;2022-10-13T07:20:40;14.90;94.20
73572;DHT22;61854;48.510;-2.770;2022-10-13T07:23:05;14.90;94.40
73572;DHT22;61854;48.510;-2.770;2022-10-13T07:25:31;14.90;94.20
73572;DHT22;61854;48.510;-2.770;2022-10-13T07:27:58;15.00;94.20
73572;DHT22;61854;48.510;-2.770;2022-10-13T07:30:23;15.00;94.20
73572;DHT22;61854;48.510;-2.770;2022-10-13T07:32:49;15.00;94.20
73572;DHT22;61854;48.510;-2.770;2022-10-13T07:35:15;15.00;94.20
73572;DHT22;61854;48.510;-2.770;2022-10-13T07:37:40;15.00;94.30
73572;DHT22;61854;48.510;-2.770;2022-10-13T07:40:07;15.00;94.50
73572;DHT22;61854;48.510;-2.770;2022-10-13T07:42:32;15.00;94.50
73572;DHT22;61854;48.510;-2.770;2022-10-13T07:44:58;15.00;94.50
73572;DHT22;61854;48.510;-2.770;2022-10-13T07:47:24;15.00;94.40
73572;DHT22;61854;48.510;-2.770;2022-10-13T07:49:49;15.00;94.40
73572;DHT22;61854;48.510;-2.770;2022-10-13T07:52:15;15.00;94.50
73572;DHT22;61854;48.510;-2.770;2022-10-13T07:54:41;15.10;94.30
73572;DHT22;61854;48.510;-2.770;2022-10-13T07:57:06;15.10;94.20
73572;DHT22;61854;48.510;-2.770;2022-10-13T07:59:33;15.10;94.20
73572;DHT22;61854;48.510;-2.770;2022-10-13T08:01:59;15.10;94.20
73572;DHT22;61854;48.510;-2.770;2022-10-13T08:04:29;15.10;94.20
73572;DHT22;61854;48.510;-2.770;2022-10-13T08:06:55;15.10;94.00
73572;DHT22;61854;48.510;-2.770;2022-10-13T08:09:21;15.10;94.00
73572;DHT22;61854;48.510;-2.770;2022-10-13T08:11:46;15.10;94.10
73572;DHT22;61854;48.510;-2.770;2022-10-13T08:14:12;15.10;94.10
73572;DHT22;61854;48.510;-2.770;2022-10-13T08:16:38;15.20;94.10
73572;DHT22;61854;48.510;-2.770;2022-10-13T08:19:06;15.20;94.10
73572;DHT22;61854;48.510;-2.770;2022-10-13T08:21:31;15.20;94.10
73572;DHT22;61854;48.510;-2.770;2022-10-13T08:23:57;15.20;94.10
73572;DHT22;61854;48.510;-2.770;2022-10-13T08:26:25;15.20;93.90
73572;DHT22;61854;48.510;-2.770;2022-10-13T08:28:52;15.30;94.00
73572;DHT22;61854;48.510;-2.770;2022-10-13T08:31:18;15.30;94.00
73572;DHT22;61854;48.510;-2.770;2022-10-13T08:33:44;15.30;94.10
73572;DHT22;61854;48.510;-2.770;2022-10-13T08:36:14;15.30;94.00
73572;DHT22;61854;48.510;-2.770;2022-10-13T08:38:40;15.30;94.00
73572;DHT22;61854;48.510;-2.770;2022-10-13T08:41:22;15.40;94.00
73572;DHT22;61854;48.510;-2.770;2022-10-13T08:43:51;15.40;94.00
73572;DHT22;61854;48.510;-2.770;2022-10-13T08:46:42;15.40;94.00
73572;DHT22;61854;48.510;-2.770;2022-10-13T08:49:09;15.50;94.10
73572;DHT22;61854;48.510;-2.770;2022-10-13T08:51:35;15.50;94.00
73572;DHT22;61854;48.510;-2.770;2022-10-13T08:54:01;15.60;93.90
73572;DHT22;61854;48.510;-2.770;2022-10-13T08:56:33;15.70;93.90
73572;DHT22;61854;48.510;-2.770;2022-10-13T08:58:59;15.80;93.70
73572;DHT22;61854;48.510;-2.770;2022-10-13T09:01:31;15.80;93.60
73572;DHT22;61854;48.510;-2.770;2022-10-13T09:04:14;15.80;93.40
73572;DHT22;61854;48.510;-2.770;2022-10-13T09:06:44;15.90;93.50
73572;DHT22;61854;48.510;-2.770;2022-10-13T09:09:12;16.00;93.50
73572;DHT22;61854;48.510;-2.770;2022-10-13T09:11:46;16.00;93.20
73572;DHT22;61854;48.510;-2.770;2022-10-13T09:14:30;16.10;93.20
73572;DHT22;61854;48.510;-2.770;2022-10-13T09:17:13;16.20;93.10
73572;DHT22;61854;48.510;-2.770;2022-10-13T09:19:39;16.20;93.00
73572;DHT22;61854;48.510;-2.770;2022-10-13T09:22:26;16.20;93.00
73572;DHT22;61854;48.510;-2.770;2022-10-13T09:27:47;16.30;93.00
73572;DHT22;61854;48.510;-2.770;2022-10-13T09:30:42;16.30;92.50
73572;DHT22;61854;48.510;-2.770;2022-10-13T09:38:27;16.50;92.90
73572;DHT22;61854;48.510;-2.770;2022-10-13T09:41:02;16.60;92.80
73572;DHT22;61854;48.510;-2.770;2022-10-13T09:46:35;16.80;92.20
73572;DHT22;61854;48.510;-2.770;2022-10-13T09:49:18;16.80;92.30
73572;DHT22;61854;48.510;-2.770;2022-10-13T09:51:46;16.90;92.00
73572;DHT22;61854;48.510;-2.770;2022-10-13T09:54:34;16.90;91.90
73572;DHT22;61854;48.510;-2.770;2022-10-13T09:57:10;16.80;91.80
73572;DHT22;61854;48.510;-2.770;2022-10-13T09:59:51;16.80;91.80
73572;DHT22;61854;48.510;-2.770;2022-10-13T10:02:31;16.70;91.80
73572;DHT22;61854;48.510;-2.770;2022-10-13T10:07:50;16.80;92.10
73572;DHT22;61854;48.510;-2.770;2022-10-13T10:10:33;16.80;92.00
73572;DHT22;61854;48.510;-2.770;2022-10-13T10:13:00;16.90;92.30
73572;DHT22;61854;48.510;-2.770;2022-10-13T10:16:01;17.00;92.00
73572;DHT22;61854;48.510;-2.770;2022-10-13T10:26:55;17.40;90.80
73572;DHT22;61854;48.510;-2.770;2022-10-13T10:32:27;17.50;90.60
73572;DHT22;61854;48.510;-2.770;2022-10-13T10:43:28;17.80;89.20
73572;DHT22;61854;48.510;-2.770;2022-10-13T10:45:58;17.90;89.50
73572;DHT22;61854;48.510;-2.770;2022-10-13T10:48:37;17.90;89.60
73572;DHT22;61854;48.510;-2.770;2022-10-13T10:51:10;18.00;90.00
73572;DHT22;61854;48.510;-2.770;2022-10-13T10:59:25;18.20;88.70
73572;DHT22;61854;48.510;-2.770;2022-10-13T11:05:00;18.20;88.70
73572;DHT22;61854;48.510;-2.770;2022-10-13T11:17:34;18.40;87.50
73572;DHT22;61854;48.510;-2.770;2022-10-13T11:31:22;18.50;87.80
73572;DHT22;61854;48.510;-2.770;2022-10-13T11:36:31;18.60;87.20
73572;DHT22;61854;48.510;-2.770;2022-10-13T11:39:10;18.50;87.80
73572;DHT22;61854;48.510;-2.770;2022-10-13T11:41:46;18.40;88.60
73572;DHT22;61854;48.510;-2.770;2022-10-13T11:44:19;18.50;88.50
73572;DHT22;61854;48.510;-2.770;2022-10-13T11:49:42;18.70;88.90
73572;DHT22;61854;48.510;-2.770;2022-10-13T11:55:11;19.10;87.50
73572;DHT22;61854;48.510;-2.770;2022-10-13T11:57:34;19.30;86.10
73572;DHT22;61854;48.510;-2.770;2022-10-13T12:00:00;19.40;86.20
73572;DHT22;61854;48.510;-2.770;2022-10-13T12:02:27;19.40;85.30
73572;DHT22;61854;48.510;-2.770;2022-10-13T12:05:04;19.40;84.70
73572;DHT22;61854;48.510;-2.770;2022-10-13T12:07:36;19.60;84.70
73572;DHT22;61854;48.510;-2.770;2022-10-13T12:10:06;19.60;83.70
73572;DHT22;61854;48.510;-2.770;2022-10-13T12:12:33;19.60;83.80
73572;DHT22;61854;48.510;-2.770;2022-10-13T12:14:59;19.50;82.70
73572;DHT22;61854;48.510;-2.770;2022-10-13T12:20:34;19.30;84.40
73572;DHT22;61854;48.510;-2.770;2022-10-13T12:22:46;19.20;84.70
73572;DHT22;61854;48.510;-2.770;2022-10-13T12:25:17;19.20;85.10
73572;DHT22;61854;48.510;-2.770;2022-10-13T12:27:52;19.20;85.10
73572;DHT22;61854;48.510;-2.770;2022-10-13T12:30:29;19.10;84.90
73572;DHT22;61854;48.510;-2.770;2022-10-13T12:32:57;19.10;85.40
73572;DHT22;61854;48.510;-2.770;2022-10-13T12:35:29;19.00;85.80
73572;DHT22;61854;48.510;-2.770;2022-10-13T12:37:56;18.90;85.80
73572;DHT22;61854;48.510;-2.770;2022-10-13T12:40:23;18.80;86.10
73572;DHT22;61854;48.510;-2.770;2022-10-13T12:42:49;18.70;86.90
73572;DHT22;61854;48.510;-2.770;2022-10-13T12:45:20;18.70;87.50
73572;DHT22;61854;48.510;-2.770;2022-10-13T12:47:49;18.60;87.90
73572;DHT22;61854;48.510;-2.770;2022-10-13T12:52:54;18.60;88.30
73572;DHT22;61854;48.510;-2.770;2022-10-13T12:55:21;18.60;88.00
73572;DHT22;61854;48.510;-2.770;2022-10-13T12:57:50;18.70;88.30
73572;DHT22;61854;48.510;-2.770;2022-10-13T13:00:21;18.70;88.60
73572;DHT22;61854;48.510;-2.770;2022-10-13T13:02:53;18.70;88.60
73572;DHT22;61854;48.510;-2.770;2022-10-13T13:05:34;18.70;88.30
73572;DHT22;61854;48.510;-2.770;2022-10-13T13:08:01;18.70;88.80
73572;DHT22;61854;48.510;-2.770;2022-10-13T13:10:27;18.70;88.30
73572;DHT22;61854;48.510;-2.770;2022-10-13T13:12:53;18.70;88.60
73572;DHT22;61854;48.510;-2.770;2022-10-13T13:17:45;18.60;90.20
73572;DHT22;61854;48.510;-2.770;2022-10-13T13:22:44;18.40;91.20
73572;DHT22;61854;48.510;-2.770;2022-10-13T13:25:10;18.30;91.60
73572;DHT22;61854;48.510;-2.770;2022-10-13T13:27:38;18.30;91.30
73572;DHT22;61854;48.510;-2.770;2022-10-13T13:30:13;18.30;91.60
73572;DHT22;61854;48.510;-2.770;2022-10-13T13:32:40;18.40;90.60
73572;DHT22;61854;48.510;-2.770;2022-10-13T13:35:06;18.40;90.60
73572;DHT22;61854;48.510;-2.770;2022-10-13T13:37:42;18.40;90.40
73572;DHT22;61854;48.510;-2.770;2022-10-13T13:40:16;18.40;90.70
73572;DHT22;61854;48.510;-2.770;2022-10-13T13:42:41;18.30;91.20
73572;DHT22;61854;48.510;-2.770;2022-10-13T13:45:11;18.20;91.70
73572;DHT22;61854;48.510;-2.770;2022-10-13T13:47:37;18.10;92.20
73572;DHT22;61854;48.510;-2.770;2022-10-13T13:50:03;18.10;92.40
73572;DHT22;61854;48.510;-2.770;2022-10-13T13:52:28;18.00;92.90
73572;DHT22;61854;48.510;-2.770;2022-10-13T13:54:54;18.10;93.00
73572;DHT22;61854;48.510;-2.770;2022-10-13T13:57:20;18.10;92.80
73572;DHT22;61854;48.510;-2.770;2022-10-13T13:59:46;18.10;92.70
73572;DHT22;61854;48.510;-2.770;2022-10-13T14:02:16;18.20;92.80
73572;DHT22;61854;48.510;-2.770;2022-10-13T14:04:42;18.20;92.50
73572;DHT22;61854;48.510;-2.770;2022-10-13T14:07:08;18.20;92.10
73572;DHT22;61854;48.510;-2.770;2022-10-13T14:09:34;18.20;92.60
73572;DHT22;61854;48.510;-2.770;2022-10-13T14:12:00;18.30;92.20
73572;DHT22;61854;48.510;-2.770;2022-10-13T14:14:28;18.30;92.20
73572;DHT22;61854;48.510;-2.770;2022-10-13T14:16:54;18.40;92.10
73572;DHT22;61854;48.510;-2.770;2022-10-13T14:19:19;18.40;91.80
73572;DHT22;61854;48.510;-2.770;2022-10-13T14:21:45;18.40;91.80
73572;DHT22;61854;48.510;-2.770;2022-10-13T14:24:11;18.40;91.70
73572;DHT22;61854;48.510;-2.770;2022-10-13T14:26:36;18.50;91.60
73572;DHT22;61854;48.510;-2.770;2022-10-13T14:29:02;18.50;91.20
73572;DHT22;61854;48.510;-2.770;2022-10-13T14:31:28;18.60;90.90
73572;DHT22;61854;48.510;-2.770;2022-10-13T14:33:55;18.60;90.60
73572;DHT22;61854;48.510;-2.770;2022-10-13T14:36:21;18.60;90.70
73572;DHT22;61854;48.510;-2.770;2022-10-13T14:38:46;18.40;90.90
73572;DHT22;61854;48.510;-2.770;2022-10-13T14:41:12;18.30;91.40
73572;DHT22;61854;48.510;-2.770;2022-10-13T14:43:39;18.10;91.70
73572;DHT22;61854;48.510;-2.770;2022-10-13T14:46:05;18.20;92.00
73572;DHT22;61854;48.510;-2.770;2022-10-13T14:48:35;18.10;92.00
73572;DHT22;61854;48.510;-2.770;2022-10-13T14:51:09;18.10;92.10
73572;DHT22;61854;48.510;-2.770;2022-10-13T14:53:36;18.10;92.10
73572;DHT22;61854;48.510;-2.770;2022-10-13T14:56:02;18.20;92.00
73572;DHT22;61854;48.510;-2.770;2022-10-13T14:58:28;18.30;91.90
73572;DHT22;61854;48.510;-2.770;2022-10-13T15:00:54;18.30;92.10
73572;DHT22;61854;48.510;-2.770;2022-10-13T15:03:21;18.40;91.60
73572;DHT22;61854;48.510;-2.770;2022-10-13T15:05:46;18.30;91.40
73572;DHT22;61854;48.510;-2.770;2022-10-13T15:08:12;18.10;91.60
73572;DHT22;61854;48.510;-2.770;2022-10-13T15:10:38;18.10;91.80
73572;DHT22;61854;48.510;-2.770;2022-10-13T15:13:04;18.00;92.10
73572;DHT22;61854;48.510;-2.770;2022-10-13T15:15:29;17.90;92.20
73572;DHT22;61854;48.510;-2.770;2022-10-13T15:17:55;17.80;92.30
73572;DHT22;61854;48.510;-2.770;2022-10-13T15:20:20;17.70;92.50
73572;DHT22;61854;48.510;-2.770;2022-10-13T15:22:47;17.60;92.60
73572;DHT22;61854;48.510;-2.770;2022-10-13T15:25:13;17.50;92.70
73572;DHT22;61854;48.510;-2.770;2022-10-13T15:27:39;17.40;92.90
73572;DHT22;61854;48.510;-2.770;2022-10-13T15:30:08;17.40;93.10
73572;DHT22;61854;48.510;-2.770;2022-10-13T15:32:34;17.30;93.20
73572;DHT22;61854;48.510;-2.770;2022-10-13T15:34:59;17.30;93.40
73572;DHT22;61854;48.510;-2.770;2022-10-13T15:37:25;17.20;93.60
73572;DHT22;61854;48.510;-2.770;2022-10-13T15:39:51;17.10;93.70
73572;DHT22;61854;48.510;-2.770;2022-10-13T15:42:16;17.10;94.00
73572;DHT22;61854;48.510;-2.770;2022-10-13T15:44:42;17.00;94.10
73572;DHT22;61854;48.510;-2.770;2022-10-13T15:47:07;17.00;94.20
73572;DHT22;61854;48.510;-2.770;2022-10-13T15:49:35;16.90;94.30
73572;DHT22;61854;48.510;-2.770;2022-10-13T15:52:03;16.90;94.30
73572;DHT22;61854;48.510;-2.770;2022-10-13T15:54:29;16.80;94.40
73572;DHT22;61854;48.510;-2.770;2022-10-13T15:56:55;16.80;94.50
73572;DHT22;61854;48.510;-2.770;2022-10-13T15:59:21;16.70;94.70
73572;DHT22;61854;48.510;-2.770;2022-10-13T16:01:46;16.70;94.90
73572;DHT22;61854;48.510;-2.770;2022-10-13T16:04:12;16.70;95.00
73572;DHT22;61854;48.510;-2.770;2022-10-13T16:06:37;16.70;95.00
73572;DHT22;61854;48.510;-2.770;2022-10-13T16:09:03;16.70;95.00
73572;DHT22;61854;48.510;-2.770;2022-10-13T16:11:29;16.70;95.10
73572;DHT22;61854;48.510;-2.770;2022-10-13T16:13:54;16.70;94.90
73572;DHT22;61854;48.510;-2.770;2022-10-13T16:16:20;16.60;94.90
73572;DHT22;61854;48.510;-2.770;2022-10-13T16:18:48;16.60;94.90
73572;DHT22;61854;48.510;-2.770;2022-10-13T16:21:18;16.50;95.00
73572;DHT22;61854;48.510;-2.770;2022-10-13T16:23:44;16.50;95.10
73572;DHT22;61854;48.510;-2.770;2022-10-13T16:26:10;16.50;95.20
73572;DHT22;61854;48.510;-2.770;2022-10-13T16:28:36;16.40;95.20
73572;DHT22;61854;48.510;-2.770;2022-10-13T16:31:07;16.40;95.30
73572;DHT22;61854;48.510;-2.770;2022-10-13T16:33:35;16.40;95.40
73572;DHT22;61854;48.510;-2.770;2022-10-13T16:36:08;16.30;95.40
73572;DHT22;61854;48.510;-2.770;2022-10-13T16:38:35;16.30;95.50
73572;DHT22;61854;48.510;-2.770;2022-10-13T16:41:06;16.30;95.60
73572;DHT22;61854;48.510;-2.770;2022-10-13T16:43:32;16.20;95.60
73572;DHT22;61854;48.510;-2.770;2022-10-13T16:46:00;16.20;95.60
73572;DHT22;61854;48.510;-2.770;2022-10-13T16:48:26;16.30;95.70
73572;DHT22;61854;48.510;-2.770;2022-10-13T16:50:52;16.20;95.60
73572;DHT22;61854;48.510;-2.770;2022-10-13T16:53:18;16.20;95.60
73572;DHT22;61854;48.510;-2.770;2022-10-13T16:55:43;16.20;95.60
73572;DHT22;61854;48.510;-2.770;2022-10-13T16:58:09;16.10;95.50
73572;DHT22;61854;48.510;-2.770;2022-10-13T17:00:36;16.10;95.60
73572;DHT22;61854;48.510;-2.770;2022-10-13T17:03:03;16.10;95.60
73572;DHT22;61854;48.510;-2.770;2022-10-13T17:05:29;16.10;95.70
73572;DHT22;61854;48.510;-2.770;2022-10-13T17:07:55;16.00;95.70